Terminal Aerodrome Forecast
Issued by NWS Spokane, WA

Home | Current Version | Previous Version | Text Only | Print | Product List | Glossary On
Versions: 1 2 3 4 5 6 7 8 9 10 11 12 13 14 15 16 17 18 19 20 21
000
FTUS46 KOTX 310532
TAFGEG
TAF
KGEG 310532Z 3106/0106 06008KT P6SM BKN100 OVC150
     FM310900 16006KT P6SM BKN100 OVC120
     FM311600 18006KT P6SM BKN080 OVC100
     FM312100 21012KT P6SM -RA BKN050 OVC060
     FM312300 22013G18KT P6SM -RA BKN025 OVC040
     FM010400 21006KT P6SM SCT025 BKN040 OVC060=

USA.gov is the U.S. government's official web portal to all federal, state and local government web resources and services.